Aérodrome :
LOGIN :

S'inscrire | Disclaimer

   EN    FR    IT 

 










Légende :    VFR   VFR Marginal   IFR   IFR Intensif   IFR Très Intensif
Visi : 
Plafond : 
>= 8 km
>= 3000ft
5 à 8 km
1000 à 3000 ft
1500m à 5 km
500 à 1000 ft
800 à 1500m
200 à 500 ft
< 800m
< 200 ft
Symboles :   Orages  Brouillard  Fortes neiges  Fortes précipitations  Vent > 20 kt
SIGMETs :   Divers  Orages  Givrage  Turbulence  Onde Orograph.  Cendres Volcan.






- Altitude de l'aérodrome : 778 ft
- Code IATA : BRQ


LKTB - Brno-Turany

DERNIER METAR :
  • 240530Z 32012KT 9999 FEW042 04/M03 Q1019 NOSIG

METARs EXPIRÉS :
  • 240500Z 30012KT 9999 FEW041 05/M03 Q1018 NOSIG
  • 240430Z 31015KT CAVOK 05/M03 Q1017 NOSIG
  • 240400Z 30018KT 9999 SCT044 05/M03 Q1017 NOSIG
  • 240330Z 31016KT 9999 SCT044 06/M03 Q1016 NOSIG
  • 240300Z 32018KT 9999 FEW046 06/M02 Q1016 NOSIG

TAF TAF LKTB
Valide du 24 à 06h jusqu'au 25 à 12h UTC


240500Z 2406/2512 31012KT CAVOK
TEMPO 2409/2413 9999 BKN033
BECMG 2413/2416 22008KT 9999 BKN025
TEMPO 2418/2501 -RA BKN012
TEMPO 2506/2512 -RA BKN012



MET'MAP, la Météo Aéronautique d'un coup d'oeil ! - Copyright ORBIFLY Décembre 2007 - Disclaimer

ORBIFLY MET'MAP TEAM :

Programmation & Développement : Alexandra Zaïnal
Sur une idée originale de : Baudouin d'Aumeries
Assistance à la programmation : Marc-Olivier Méhu
Soutien technique & logistique : Manuel Goepfert

Contact : metmap@orbifly.com




SOURCES & CREDITS :

   NOAA